createdAt,value
2019-06-20T00:01:15.852Z,12.10
2019-06-20T00:03:45.573Z,12.20
2019-06-20T00:06:15.309Z,12.20
2019-06-20T00:08:45.093Z,12.20
2019-06-20T00:11:14.875Z,12.20
2019-06-20T00:13:44.683Z,12.20
2019-06-20T00:16:14.373Z,12.20
2019-06-20T00:18:44.016Z,12.20
2019-06-20T00:21:13.733Z,12.20
2019-06-20T00:23:43.531Z,12.20
2019-06-20T00:26:13.508Z,12.20
2019-06-20T00:28:43.327Z,12.20
2019-06-20T00:31:13.029Z,12.20
2019-06-20T00:33:43.220Z,12.20
2019-06-20T00:36:12.944Z,12.20
2019-06-20T00:38:42.718Z,12.20
2019-06-20T00:41:12.496Z,12.20
2019-06-20T00:43:42.291Z,12.20
2019-06-20T00:46:23.774Z,12.20
2019-06-20T00:48:53.964Z,12.20
2019-06-20T00:51:23.661Z,12.20
2019-06-20T00:53:53.448Z,12.20
2019-06-20T00:56:23.147Z,12.20
2019-06-20T00:58:52.947Z,12.10
2019-06-20T01:01:22.676Z,12.10
2019-06-20T01:03:52.870Z,12.10
2019-06-20T01:06:23.690Z,12.10
2019-06-20T01:08:53.497Z,12.10
2019-06-20T01:11:23.244Z,12.10
2019-06-20T01:13:53.080Z,12.10
2019-06-20T01:16:23.835Z,12.10
2019-06-20T01:18:53.615Z,12.10
2019-06-20T01:21:23.549Z,12.10
2019-06-20T01:23:53.350Z,12.20
2019-06-20T01:26:24.964Z,12.20
2019-06-20T01:28:54.537Z,12.20
2019-06-20T01:31:25.454Z,12.20
2019-06-20T01:33:55.346Z,12.20
2019-06-20T01:36:26.700Z,12.20
2019-06-20T01:38:56.589Z,12.20
2019-06-20T01:41:26.347Z,12.20
2019-06-20T01:43:56.131Z,12.20
2019-06-20T01:46:25.947Z,12.20
2019-06-20T01:48:55.726Z,12.20
2019-06-20T01:51:25.506Z,12.20
2019-06-20T01:53:55.516Z,12.20
2019-06-20T01:56:25.230Z,12.20
2019-06-20T01:58:55.021Z,12.20
2019-06-20T02:01:26.444Z,12.20
2019-06-20T02:03:56.542Z,12.20
2019-06-20T02:06:26.733Z,12.20
2019-06-20T02:08:56.517Z,12.20
2019-06-20T02:11:26.689Z,12.20
2019-06-20T02:14:06.732Z,12.20
2019-06-20T02:16:27.828Z,12.20
2019-06-20T02:18:57.637Z,12.20
2019-06-20T02:21:27.270Z,12.10
2019-06-20T02:23:56.957Z,12.10
2019-06-20T02:26:26.662Z,12.10
2019-06-20T02:28:56.424Z,12.00
2019-06-20T02:31:26.418Z,12.00
2019-06-20T02:33:56.110Z,12.00
2019-06-20T02:36:25.792Z,12.00
2019-06-20T02:38:55.897Z,12.00
2019-06-20T02:41:26.041Z,11.90
2019-06-20T02:43:55.675Z,11.90
2019-06-20T02:46:25.475Z,11.90
2019-06-20T02:48:55.295Z,11.90
2019-06-20T02:51:26.307Z,11.90
2019-06-20T02:53:56.056Z,11.90
2019-06-20T02:56:25.955Z,11.90
2019-06-20T02:58:55.607Z,11.90
2019-06-20T03:01:26.882Z,11.80
2019-06-20T03:03:56.637Z,11.80
2019-06-20T03:06:26.403Z,11.80
2019-06-20T03:08:56.548Z,11.80
2019-06-20T03:11:26.277Z,11.80
2019-06-20T03:13:56.065Z,11.80
2019-06-20T03:16:25.863Z,11.80
2019-06-20T03:18:55.660Z,11.80
2019-06-20T03:21:27.280Z,11.80
2019-06-20T03:23:58.168Z,11.80
2019-06-20T03:26:27.974Z,11.80
2019-06-20T03:28:57.922Z,11.70
2019-06-20T03:31:27.711Z,11.70
2019-06-20T03:33:57.421Z,11.70
2019-06-20T03:36:27.160Z,11.70
2019-06-20T03:38:56.937Z,11.70
2019-06-20T03:41:26.720Z,11.70
2019-06-20T03:43:59.016Z,11.70
2019-06-20T03:46:27.906Z,11.70
2019-06-20T03:48:57.591Z,11.70
2019-06-20T03:51:27.243Z,11.70
2019-06-20T03:53:57.050Z,11.70
2019-06-20T03:56:26.828Z,11.70
2019-06-20T03:58:56.888Z,11.70
2019-06-20T04:01:26.637Z,11.70
2019-06-20T04:03:56.333Z,11.70
2019-06-20T04:06:26.141Z,11.70
2019-06-20T04:08:56.288Z,11.70
2019-06-20T04:11:26.148Z,11.70
2019-06-20T04:13:55.984Z,11.70
2019-06-20T04:16:26.669Z,11.70
2019-06-20T04:18:56.306Z,11.80
2019-06-20T04:21:26.045Z,11.80
2019-06-20T04:23:55.755Z,11.70
2019-06-20T04:26:27.397Z,11.70
2019-06-20T04:28:57.189Z,11.80
2019-06-20T04:31:26.958Z,11.70
2019-06-20T04:33:56.842Z,11.80
2019-06-20T04:36:26.626Z,11.80
2019-06-20T04:38:56.757Z,11.80
2019-06-20T04:41:26.658Z,11.80
2019-06-20T04:43:56.578Z,11.90
2019-06-20T04:46:28.263Z,11.90
2019-06-20T04:48:58.023Z,11.90
2019-06-20T04:51:27.727Z,11.90
2019-06-20T04:53:57.498Z,11.90
2019-06-20T04:56:27.327Z,11.90
2019-06-20T04:58:57.119Z,11.90
2019-06-20T05:01:26.932Z,12.00
2019-06-20T05:03:56.711Z,12.00
2019-06-20T05:06:26.460Z,12.00
2019-06-20T05:08:56.172Z,11.90
2019-06-20T05:11:25.905Z,11.90
2019-06-20T05:13:56.006Z,11.90
2019-06-20T05:16:25.707Z,11.90
2019-06-20T05:18:55.932Z,11.80
2019-06-20T05:21:26.173Z,11.80
2019-06-20T05:23:56.240Z,11.70
2019-06-20T05:26:25.892Z,11.70
2019-06-20T05:28:55.588Z,11.50
2019-06-20T05:31:25.301Z,11.50
2019-06-20T05:33:55.419Z,11.40
2019-06-20T05:36:26.239Z,11.30
2019-06-20T05:38:55.890Z,11.20
2019-06-20T05:41:25.512Z,11.20
2019-06-20T05:43:56.299Z,11.10
2019-06-20T05:46:26.808Z,11.20
2019-06-20T05:48:57.505Z,11.10
2019-06-20T05:51:27.346Z,11.20
2019-06-20T05:53:57.508Z,11.10
2019-06-20T05:56:27.315Z,11.20
2019-06-20T05:58:57.077Z,11.20
2019-06-20T06:01:26.913Z,11.20
2019-06-20T06:03:56.691Z,11.30
2019-06-20T06:06:26.458Z,11.30
2019-06-20T06:08:56.247Z,11.30
2019-06-20T06:11:25.923Z,11.30
2019-06-20T06:13:56.278Z,11.30
2019-06-20T06:16:28.321Z,11.40
2019-06-20T06:18:59.279Z,11.90
2019-06-20T06:21:28.972Z,12.20
2019-06-20T06:23:58.682Z,12.40
2019-06-20T06:26:28.439Z,12.60
2019-06-20T06:28:58.558Z,12.80
2019-06-20T06:31:28.346Z,12.80
2019-06-20T06:33:58.234Z,12.90
2019-06-20T06:36:28.033Z,13.00
2019-06-20T06:38:57.814Z,13.20
2019-06-20T06:41:27.698Z,13.40
2019-06-20T06:43:57.521Z,13.50
2019-06-20T06:46:42.804Z,13.60
2019-06-20T06:48:59.882Z,13.70
2019-06-20T06:51:29.773Z,13.60
2019-06-20T06:53:59.484Z,13.70
2019-06-20T06:56:29.296Z,13.90
2019-06-20T06:58:59.071Z,13.90
2019-06-20T07:01:28.715Z,14.10
2019-06-20T07:03:58.947Z,14.10
2019-06-20T07:06:29.125Z,14.50
2019-06-20T07:08:59.037Z,14.70
2019-06-20T07:11:29.164Z,14.90
2019-06-20T07:13:59.201Z,14.90
2019-06-20T07:16:28.934Z,15.00
2019-06-20T07:18:58.660Z,15.00
2019-06-20T07:21:28.491Z,15.00
2019-06-20T07:23:58.419Z,14.90
2019-06-20T07:26:28.146Z,15.10
2019-06-20T07:28:57.832Z,15.30
2019-06-20T07:31:27.697Z,15.40
2019-06-20T07:33:57.398Z,15.40
2019-06-20T07:36:27.224Z,15.10
2019-06-20T07:38:57.083Z,15.20
2019-06-20T07:41:26.888Z,15.30
2019-06-20T07:43:56.661Z,15.30
2019-06-20T07:46:26.463Z,15.50
2019-06-20T07:48:56.235Z,15.50
2019-06-20T07:51:29.028Z,15.80
2019-06-20T07:53:58.823Z,15.90
2019-06-20T07:56:28.606Z,16.00
2019-06-20T07:58:58.768Z,15.90
2019-06-20T08:01:28.600Z,15.90
2019-06-20T08:03:58.322Z,15.90
2019-06-20T08:06:28.093Z,16.00
2019-06-20T08:08:57.896Z,16.00
2019-06-20T08:11:27.593Z,16.00
2019-06-20T08:13:57.320Z,15.90
2019-06-20T08:16:27.068Z,15.80
2019-06-20T08:18:56.841Z,16.00
2019-06-20T08:21:26.494Z,16.00
2019-06-20T08:23:56.151Z,15.90
2019-06-20T08:26:25.916Z,15.90
2019-06-20T08:29:10.495Z,15.90
2019-06-20T08:31:27.399Z,15.80
2019-06-20T08:33:57.700Z,15.90
2019-06-20T08:36:28.743Z,16.10
2019-06-20T08:39:00.179Z,16.30
2019-06-20T08:41:31.776Z,16.20
2019-06-20T08:44:01.790Z,15.80
2019-06-20T08:46:31.672Z,15.60
2019-06-20T08:49:01.511Z,15.80
2019-06-20T08:51:31.622Z,15.80
2019-06-20T08:54:01.415Z,15.40
2019-06-20T08:56:32.211Z,15.10
2019-06-20T08:59:02.599Z,15.20
2019-06-20T09:01:32.896Z,15.80
2019-06-20T09:06:33.146Z,17.00
2019-06-20T09:09:04.379Z,17.40
2019-06-20T09:11:34.904Z,17.60
2019-06-20T09:14:05.204Z,18.20
2019-06-20T09:16:35.297Z,18.70
2019-06-20T09:19:05.686Z,18.50
2019-06-20T09:21:35.400Z,17.70
2019-06-20T09:24:05.733Z,17.20
2019-06-20T09:26:35.530Z,17.20
2019-06-20T09:29:05.312Z,17.50
2019-06-20T09:31:35.112Z,17.80
2019-06-20T09:34:05.474Z,18.10
2019-06-20T09:36:35.863Z,18.20
2019-06-20T09:39:07.060Z,18.40
2019-06-20T09:41:36.800Z,18.50
2019-06-20T09:44:06.542Z,18.30
2019-06-20T09:46:36.588Z,18.20
2019-06-20T09:49:06.371Z,17.80
2019-06-20T09:51:36.155Z,17.50
2019-06-20T09:54:06.479Z,17.10
2019-06-20T09:56:36.576Z,16.90
2019-06-20T09:59:06.834Z,16.70
2019-06-20T10:01:37.051Z,16.40
2019-06-20T10:04:06.840Z,16.00
2019-06-20T10:06:36.917Z,15.90
2019-06-20T10:09:08.775Z,15.80
2019-06-20T10:11:38.912Z,16.50
2019-06-20T10:14:11.023Z,17.30
2019-06-20T10:16:45.869Z,17.90
2019-06-20T10:19:13.449Z,17.70
2019-06-20T10:21:46.212Z,17.30
2019-06-20T10:24:15.906Z,17.40
2019-06-20T10:26:46.658Z,17.80
2019-06-20T10:29:17.452Z,18.00
2019-06-20T10:31:47.926Z,18.20
2019-06-20T10:34:18.973Z,18.40
2019-06-20T10:36:50.004Z,18.40
2019-06-20T10:39:19.900Z,18.00
2019-06-20T10:41:50.272Z,18.30
2019-06-20T10:44:21.241Z,18.30
2019-06-20T10:46:51.433Z,18.20
2019-06-20T10:49:21.340Z,18.20
2019-06-20T10:51:51.951Z,18.20
2019-06-20T10:54:21.871Z,18.30
2019-06-20T10:56:51.640Z,18.50
2019-06-20T10:59:22.809Z,18.60
2019-06-20T11:01:53.747Z,18.50
2019-06-20T11:04:23.506Z,18.50
2019-06-20T11:06:53.361Z,19.00
2019-06-20T11:09:23.060Z,19.20
2019-06-20T11:11:52.819Z,19.20
2019-06-20T11:14:22.785Z,19.40
2019-06-20T11:16:52.790Z,19.30
2019-06-20T11:19:22.811Z,19.10
2019-06-20T11:21:52.533Z,18.90
2019-06-20T11:24:22.645Z,19.10
2019-06-20T11:26:52.793Z,18.70
2019-06-20T11:29:22.879Z,18.70
2019-06-20T11:31:53.014Z,19.20
2019-06-20T11:34:22.931Z,19.20
2019-06-20T11:36:52.662Z,19.00
2019-06-20T11:39:22.483Z,19.00
2019-06-20T11:41:52.544Z,19.20
2019-06-20T11:44:22.280Z,19.20
2019-06-20T11:46:52.081Z,19.00
2019-06-20T11:49:21.864Z,19.00
2019-06-20T11:51:52.018Z,18.80
2019-06-20T11:54:22.030Z,18.60
2019-06-20T11:56:51.749Z,18.50
2019-06-20T11:59:21.565Z,18.20
2019-06-20T12:01:51.376Z,18.00
2019-06-20T12:04:21.303Z,17.90
2019-06-20T12:06:51.283Z,17.90
2019-06-20T12:09:20.993Z,17.80
2019-06-20T12:11:50.930Z,17.60
2019-06-20T12:14:20.654Z,17.60
2019-06-20T12:16:50.825Z,17.60
2019-06-20T12:19:20.602Z,17.30
2019-06-20T12:21:50.307Z,17.20
2019-06-20T12:24:20.401Z,17.00
2019-06-20T12:26:50.106Z,16.80
2019-06-20T12:29:19.809Z,16.80
2019-06-20T12:31:50.074Z,16.80
2019-06-20T12:34:19.853Z,16.80
2019-06-20T12:36:51.143Z,16.70
2019-06-20T12:39:20.975Z,16.70
2019-06-20T12:41:50.599Z,16.90
2019-06-20T12:44:20.440Z,17.00
2019-06-20T12:46:50.586Z,17.30
2019-06-20T12:49:23.719Z,17.90
2019-06-20T12:51:51.703Z,18.50
2019-06-20T12:54:21.686Z,19.00
2019-06-20T12:56:51.325Z,19.20
2019-06-20T12:59:21.199Z,19.30
2019-06-20T13:01:51.214Z,19.30
2019-06-20T13:04:21.053Z,19.80
2019-06-20T13:06:51.760Z,20.10
2019-06-20T13:09:22.524Z,20.10
2019-06-20T13:11:52.851Z,20.30
2019-06-20T13:14:22.664Z,20.40
2019-06-20T13:16:52.473Z,20.40
2019-06-20T13:19:22.286Z,20.80
2019-06-20T13:21:52.060Z,20.70
2019-06-20T13:24:21.761Z,20.70
2019-06-20T13:26:51.455Z,20.20
2019-06-20T13:29:21.261Z,19.70
2019-06-20T13:32:01.924Z,19.40
2019-06-20T13:34:22.383Z,18.90
2019-06-20T13:36:52.191Z,18.30
2019-06-20T13:39:21.981Z,18.00
2019-06-20T13:41:51.750Z,17.90
2019-06-20T13:44:21.872Z,18.50
2019-06-20T13:46:51.676Z,19.50
2019-06-20T13:49:22.434Z,20.10
2019-06-20T13:51:52.324Z,20.30
2019-06-20T13:54:22.087Z,20.70
2019-06-20T13:56:52.006Z,20.90
2019-06-20T13:59:21.844Z,21.10
2019-06-20T14:02:05.848Z,21.30
2019-06-20T14:04:23.065Z,21.20
2019-06-20T14:06:53.823Z,21.20
2019-06-20T14:09:23.701Z,20.60
2019-06-20T14:11:54.182Z,20.10
2019-06-20T14:14:24.418Z,20.20
2019-06-20T14:16:54.513Z,20.10
2019-06-20T14:19:24.500Z,19.80
2019-06-20T14:21:54.390Z,19.50
2019-06-20T14:24:24.605Z,19.30
2019-06-20T14:26:54.603Z,19.20
2019-06-20T14:29:24.563Z,19.10
2019-06-20T14:31:54.371Z,18.80
2019-06-20T14:34:24.141Z,18.50
2019-06-20T14:36:54.049Z,17.90
2019-06-20T14:39:24.048Z,17.50
2019-06-20T14:41:55.164Z,17.10
2019-06-20T14:44:25.018Z,17.20
2019-06-20T14:46:54.812Z,17.40
2019-06-20T14:49:24.653Z,17.20
2019-06-20T14:51:55.113Z,17.10
2019-06-20T14:54:24.928Z,16.90
2019-06-20T14:56:57.377Z,16.80
2019-06-20T14:59:26.016Z,17.10
2019-06-20T15:01:55.732Z,18.00
2019-06-20T15:04:25.423Z,18.30
2019-06-20T15:06:55.158Z,17.90
2019-06-20T15:09:25.223Z,17.50
2019-06-20T15:11:55.190Z,17.20
2019-06-20T15:14:25.429Z,17.60
2019-06-20T15:16:55.422Z,18.20
2019-06-20T15:19:25.693Z,18.70
2019-06-20T15:21:56.547Z,18.50
2019-06-20T15:24:26.586Z,18.10
2019-06-20T15:26:56.522Z,17.80
2019-06-20T15:29:26.340Z,17.70
2019-06-20T15:31:56.995Z,17.50
2019-06-20T15:34:26.996Z,17.30
2019-06-20T15:36:57.779Z,17.20
2019-06-20T15:39:28.521Z,17.10
2019-06-20T15:41:58.302Z,17.10
2019-06-20T15:44:28.088Z,17.10
2019-06-20T15:46:58.216Z,17.10
2019-06-20T15:49:28.074Z,17.30
2019-06-20T15:51:59.162Z,17.50
2019-06-20T15:54:29.063Z,17.70
2019-06-20T15:56:59.117Z,17.70
2019-06-20T15:59:28.850Z,17.40
2019-06-20T16:01:58.486Z,17.30
2019-06-20T16:04:28.250Z,17.30
2019-06-20T16:06:58.068Z,17.20
2019-06-20T16:09:28.083Z,17.10
2019-06-20T16:11:57.877Z,17.00
2019-06-20T16:14:27.628Z,17.00
2019-06-20T16:16:57.327Z,16.90
2019-06-20T16:19:27.094Z,16.80
2019-06-20T16:21:56.904Z,16.40
2019-06-20T16:24:26.863Z,15.70
2019-06-20T16:26:56.646Z,15.50
2019-06-20T16:29:26.502Z,15.60
2019-06-20T16:31:56.230Z,15.60
2019-06-20T16:34:26.306Z,15.70
2019-06-20T16:37:09.171Z,15.60
2019-06-20T16:39:27.412Z,15.60
2019-06-20T16:41:57.203Z,15.20
2019-06-20T16:44:26.956Z,14.70
2019-06-20T16:46:56.721Z,14.40
2019-06-20T16:49:26.417Z,14.20
2019-06-20T16:51:56.215Z,14.00
2019-06-20T16:54:25.997Z,13.90
2019-06-20T16:56:55.800Z,13.80
2019-06-20T16:59:25.529Z,13.70
2019-06-20T17:01:55.307Z,13.30
2019-06-20T17:04:26.069Z,13.30
2019-06-20T17:06:56.112Z,13.40
2019-06-20T17:09:26.239Z,13.30
2019-06-20T17:11:55.992Z,13.30
2019-06-20T17:14:25.878Z,13.40
2019-06-20T17:16:55.664Z,13.50
2019-06-20T17:19:25.579Z,13.60
2019-06-20T17:21:55.339Z,13.40
2019-06-20T17:24:25.477Z,13.30
2019-06-20T17:26:55.554Z,13.60
2019-06-20T17:29:25.240Z,13.70
2019-06-20T17:31:57.383Z,13.70
2019-06-20T17:34:26.454Z,13.70
2019-06-20T17:36:56.276Z,13.60
2019-06-20T17:39:26.152Z,13.50
2019-06-20T17:41:55.949Z,13.60
2019-06-20T17:44:27.539Z,13.50
2019-06-20T17:46:57.573Z,13.40
2019-06-20T17:49:27.338Z,13.40
2019-06-20T17:51:57.253Z,13.40
2019-06-20T17:54:27.193Z,13.60
2019-06-20T17:56:56.875Z,13.70
2019-06-20T17:59:26.676Z,13.90
2019-06-20T18:01:56.383Z,13.90
2019-06-20T18:04:26.940Z,13.90
2019-06-20T18:06:58.294Z,14.00
2019-06-20T18:09:28.077Z,14.00
2019-06-20T18:11:57.807Z,14.20
2019-06-20T18:14:28.034Z,14.30
2019-06-20T18:16:58.122Z,14.30
2019-06-20T18:19:27.839Z,14.30
2019-06-20T18:21:57.968Z,14.30
2019-06-20T18:24:28.114Z,14.30
2019-06-20T18:26:58.299Z,14.40
2019-06-20T18:29:28.087Z,14.40
2019-06-20T18:31:59.056Z,14.40
2019-06-20T18:34:30.346Z,14.40
2019-06-20T18:37:00.533Z,14.50
2019-06-20T18:39:30.333Z,14.40
2019-06-20T18:42:00.178Z,14.40
2019-06-20T18:44:29.945Z,14.40
2019-06-20T18:46:59.713Z,14.40
2019-06-20T18:49:29.509Z,14.40
2019-06-20T18:51:59.261Z,14.40
2019-06-20T18:54:29.006Z,14.50
2019-06-20T18:56:58.795Z,14.60
2019-06-20T18:59:28.569Z,14.60
2019-06-20T19:01:58.382Z,14.60
2019-06-20T19:04:28.032Z,14.70
2019-06-20T19:06:57.938Z,14.60
2019-06-20T19:09:27.688Z,14.60
2019-06-20T19:11:57.462Z,14.60
2019-06-20T19:14:29.956Z,14.50
2019-06-20T19:16:59.728Z,14.50
2019-06-20T19:19:29.497Z,14.40
2019-06-20T19:21:59.126Z,14.40
2019-06-20T19:24:29.976Z,14.40
2019-06-20T19:26:59.755Z,14.40
2019-06-20T19:29:29.811Z,14.30
2019-06-20T19:31:59.722Z,14.30
2019-06-20T19:34:30.551Z,14.30
2019-06-20T19:37:00.366Z,14.30
2019-06-20T19:39:30.183Z,14.40
2019-06-20T19:41:59.983Z,14.30
2019-06-20T19:44:30.244Z,14.30
2019-06-20T19:47:00.023Z,14.20
2019-06-20T19:49:29.945Z,14.20
2019-06-20T19:51:59.725Z,14.20
2019-06-20T19:54:29.562Z,14.20
2019-06-20T19:56:59.381Z,14.10
2019-06-20T19:59:29.183Z,14.00
2019-06-20T20:01:59.445Z,14.00
2019-06-20T20:04:29.452Z,13.90
2019-06-20T20:06:59.560Z,13.80
2019-06-20T20:09:29.673Z,13.70
2019-06-20T20:12:01.117Z,13.60
2019-06-20T20:14:30.843Z,13.50
2019-06-20T20:17:00.986Z,13.50
2019-06-20T20:19:30.688Z,13.40
2019-06-20T20:22:01.473Z,13.40
2019-06-20T20:24:31.243Z,13.30
2019-06-20T20:27:01.353Z,13.30
2019-06-20T20:29:31.170Z,13.30
2019-06-20T20:32:00.947Z,13.20
2019-06-20T20:34:30.726Z,13.10
2019-06-20T20:37:00.607Z,13.10
2019-06-20T20:39:30.386Z,13.00
2019-06-20T20:42:00.301Z,12.90
2019-06-20T20:44:30.464Z,12.80
2019-06-20T20:47:00.174Z,12.70
2019-06-20T20:49:29.971Z,12.70
2019-06-20T20:51:59.756Z,12.60
2019-06-20T20:54:29.577Z,12.50
2019-06-20T20:56:59.364Z,12.40
2019-06-20T20:59:29.298Z,12.40
2019-06-20T21:01:59.230Z,12.30
2019-06-20T21:04:28.959Z,12.20
2019-06-20T21:06:59.931Z,12.10
2019-06-20T21:09:32.015Z,12.10
2019-06-20T21:12:01.506Z,12.00
2019-06-20T21:14:32.349Z,12.00
2019-06-20T21:17:02.163Z,12.00
2019-06-20T21:19:32.033Z,11.90
2019-06-20T21:22:01.948Z,11.90
2019-06-20T21:24:31.658Z,11.90
2019-06-20T21:27:01.423Z,11.90
2019-06-20T21:29:31.256Z,11.90
2019-06-20T21:32:02.909Z,11.90
2019-06-20T21:34:34.592Z,11.80
2019-06-20T21:37:04.292Z,11.80
2019-06-20T21:39:34.102Z,11.70
2019-06-20T21:42:03.869Z,11.60
2019-06-20T21:44:33.655Z,11.70
2019-06-20T21:47:03.528Z,11.60
2019-06-20T21:49:34.292Z,11.60
2019-06-20T21:52:04.202Z,11.60
2019-06-20T21:54:35.017Z,11.60
2019-06-20T21:57:04.818Z,11.50
2019-06-20T21:59:34.607Z,11.50
2019-06-20T22:02:05.172Z,11.50
2019-06-20T22:04:34.984Z,11.50
2019-06-20T22:07:05.422Z,11.40
2019-06-20T22:09:35.648Z,11.40
2019-06-20T22:12:05.569Z,11.40
2019-06-20T22:14:35.332Z,11.50
2019-06-20T22:17:05.371Z,11.50
2019-06-20T22:19:35.193Z,11.40
2019-06-20T22:22:05.147Z,11.50
2019-06-20T22:24:34.936Z,11.50
2019-06-20T22:27:04.948Z,11.50
2019-06-20T22:29:34.714Z,11.50
2019-06-20T22:32:04.506Z,11.40
2019-06-20T22:34:34.309Z,11.30
2019-06-20T22:37:04.215Z,11.30
2019-06-20T22:39:34.026Z,11.20
2019-06-20T22:42:03.930Z,11.20
2019-06-20T22:44:34.750Z,11.20
2019-06-20T22:47:04.563Z,11.20
2019-06-20T22:49:34.372Z,11.20
2019-06-20T22:52:04.078Z,11.20
2019-06-20T22:54:33.899Z,11.10
2019-06-20T22:57:03.738Z,11.10
2019-06-20T22:59:33.530Z,11.10
2019-06-20T23:02:03.235Z,11.10
2019-06-20T23:04:33.378Z,11.10
2019-06-20T23:07:03.494Z,11.00
2019-06-20T23:09:35.417Z,11.00
2019-06-20T23:12:05.279Z,11.00
2019-06-20T23:14:35.071Z,11.00
2019-06-20T23:17:04.813Z,11.00
2019-06-20T23:19:34.718Z,10.90
2019-06-20T23:22:04.493Z,10.90
2019-06-20T23:24:34.643Z,10.90
2019-06-20T23:27:04.580Z,10.90
2019-06-20T23:29:34.466Z,10.90
2019-06-20T23:32:04.265Z,10.90
2019-06-20T23:34:34.511Z,10.90
2019-06-20T23:37:12.762Z,10.80
2019-06-20T23:39:35.742Z,10.90
2019-06-20T23:42:05.911Z,10.80
2019-06-20T23:44:35.680Z,10.90
2019-06-20T23:47:05.533Z,10.90
2019-06-20T23:49:37.295Z,10.80
2019-06-20T23:52:14.159Z,10.70
2019-06-20T23:54:43.840Z,10.70
2019-06-20T23:57:13.654Z,10.70
2019-06-20T23:59:44.427Z,10.60
